createdAt,value
2018-12-18T00:02:19.824Z,5.00
2018-12-18T00:04:48.234Z,5.00
2018-12-18T00:07:16.376Z,5.00
2018-12-18T00:09:44.595Z,5.00
2018-12-18T00:12:12.793Z,5.00
2018-12-18T00:14:41.033Z,5.00
2018-12-18T00:17:09.318Z,5.00
2018-12-18T00:19:37.590Z,5.00
2018-12-18T00:22:06.119Z,5.00
2018-12-18T00:24:34.453Z,5.00
2018-12-18T00:27:02.783Z,5.10
2018-12-18T00:29:30.999Z,5.10
2018-12-18T00:31:59.237Z,5.10
2018-12-18T00:34:27.491Z,5.10
2018-12-18T00:36:55.688Z,5.10
2018-12-18T00:39:23.967Z,5.10
2018-12-18T00:41:56.382Z,5.00
2018-12-18T00:44:25.202Z,5.00
2018-12-18T00:46:53.647Z,5.00
2018-12-18T00:49:21.815Z,5.10
2018-12-18T00:51:49.961Z,5.00
2018-12-18T00:54:18.227Z,5.00
2018-12-18T00:56:46.415Z,5.00
2018-12-18T00:59:14.676Z,4.90
2018-12-18T01:01:47.204Z,4.90
2018-12-18T01:04:15.641Z,4.80
2018-12-18T01:06:43.925Z,4.80
2018-12-18T01:09:12.195Z,4.80
2018-12-18T01:11:40.445Z,4.80
2018-12-18T01:14:08.595Z,4.80
2018-12-18T01:16:36.832Z,4.80
2018-12-18T01:19:05.142Z,4.80
2018-12-18T01:21:33.351Z,4.80
2018-12-18T01:24:08.228Z,4.70
2018-12-18T01:26:36.463Z,4.70
2018-12-18T01:29:04.753Z,4.60
2018-12-18T01:31:32.903Z,4.60
2018-12-18T01:34:01.055Z,4.60
2018-12-18T01:36:29.186Z,4.60
2018-12-18T01:38:57.384Z,4.60
2018-12-18T01:41:25.594Z,4.60
2018-12-18T01:43:53.886Z,4.50
2018-12-18T01:46:22.170Z,4.50
2018-12-18T01:48:50.365Z,4.50
2018-12-18T01:51:20.434Z,4.50
2018-12-18T01:53:48.675Z,4.50
2018-12-18T01:56:16.858Z,4.40
2018-12-18T01:58:45.078Z,4.40
2018-12-18T02:01:13.257Z,4.40
2018-12-18T02:03:41.530Z,4.50
2018-12-18T02:06:09.879Z,4.50
2018-12-18T02:08:38.124Z,4.60
2018-12-18T02:11:06.394Z,4.60
2018-12-18T02:13:34.638Z,4.60
2018-12-18T02:16:02.899Z,4.70
2018-12-18T02:18:31.065Z,4.70
2018-12-18T02:20:59.393Z,4.70
2018-12-18T02:23:27.525Z,4.70
2018-12-18T02:25:55.697Z,4.80
2018-12-18T02:28:23.942Z,4.80
2018-12-18T02:30:52.137Z,4.90
2018-12-18T02:33:20.363Z,4.90
2018-12-18T02:35:48.615Z,4.90
2018-12-18T02:38:16.833Z,4.90
2018-12-18T02:40:45.071Z,4.90
2018-12-18T02:43:13.314Z,4.90
2018-12-18T02:45:41.496Z,4.90
2018-12-18T02:48:09.662Z,4.90
2018-12-18T02:50:37.918Z,5.00
2018-12-18T02:53:06.083Z,5.00
2018-12-18T02:55:34.349Z,5.00
2018-12-18T02:58:02.544Z,5.00
2018-12-18T03:00:30.974Z,5.00
2018-12-18T03:02:59.156Z,5.00
2018-12-18T03:05:27.314Z,5.10
2018-12-18T03:07:55.513Z,5.10
2018-12-18T03:10:23.732Z,5.10
2018-12-18T03:12:51.999Z,5.10
2018-12-18T03:15:20.333Z,5.10
2018-12-18T03:17:48.705Z,5.10
2018-12-18T03:20:16.987Z,5.10
2018-12-18T03:22:45.270Z,5.00
2018-12-18T03:25:13.586Z,5.00
2018-12-18T03:27:41.759Z,5.00
2018-12-18T03:30:10.214Z,5.00
2018-12-18T03:32:42.872Z,5.00
2018-12-18T03:35:11.206Z,5.00
2018-12-18T03:37:39.383Z,5.00
2018-12-18T03:40:07.713Z,5.00
2018-12-18T03:42:35.894Z,5.00
2018-12-18T03:45:04.417Z,4.90
2018-12-18T03:47:32.677Z,4.90
2018-12-18T03:50:00.910Z,4.90
2018-12-18T03:52:29.064Z,4.80
2018-12-18T03:54:57.365Z,4.80
2018-12-18T03:57:25.550Z,4.70
2018-12-18T03:59:53.726Z,4.70
2018-12-18T04:02:21.999Z,4.70
2018-12-18T04:04:50.242Z,4.50
2018-12-18T04:07:18.522Z,4.50
2018-12-18T04:09:46.702Z,4.50
2018-12-18T04:12:20.467Z,4.50
2018-12-18T04:14:48.799Z,4.50
2018-12-18T04:17:16.951Z,4.40
2018-12-18T04:19:45.180Z,4.40
2018-12-18T04:22:13.469Z,4.40
2018-12-18T04:24:41.718Z,4.40
2018-12-18T04:27:09.928Z,4.40
2018-12-18T04:32:28.801Z,4.40
2018-12-18T04:34:57.090Z,4.40
2018-12-18T04:37:25.401Z,4.40
2018-12-18T04:39:53.766Z,4.40
2018-12-18T04:42:22.154Z,4.40
2018-12-18T04:44:50.411Z,4.30
2018-12-18T04:47:18.653Z,4.30
2018-12-18T04:49:46.934Z,4.30
2018-12-18T04:52:21.867Z,4.30
2018-12-18T04:54:50.153Z,4.30
2018-12-18T04:57:18.464Z,4.40
2018-12-18T04:59:46.788Z,4.40
2018-12-18T05:02:15.039Z,4.40
2018-12-18T05:04:50.016Z,4.40
2018-12-18T05:07:13.626Z,4.50
2018-12-18T05:09:41.899Z,4.60
2018-12-18T05:12:10.214Z,4.60
2018-12-18T05:14:38.579Z,4.70
2018-12-18T05:17:06.873Z,4.70
2018-12-18T05:19:35.119Z,4.70
2018-12-18T05:22:03.494Z,4.80
2018-12-18T05:24:31.808Z,4.80
2018-12-18T05:27:00.050Z,4.70
2018-12-18T05:29:28.359Z,4.80
2018-12-18T05:31:56.625Z,5.50
2018-12-18T05:34:24.936Z,4.80
2018-12-18T05:36:53.188Z,4.80
2018-12-18T05:39:21.425Z,4.90
2018-12-18T05:41:49.763Z,4.90
2018-12-18T05:44:18.012Z,4.90
2018-12-18T05:46:46.292Z,4.90
2018-12-18T05:49:14.566Z,4.90
2018-12-18T05:51:42.858Z,4.90
2018-12-18T05:54:11.242Z,5.00
2018-12-18T05:56:39.507Z,5.00
2018-12-18T05:59:07.870Z,5.00
2018-12-18T06:01:36.244Z,5.00
2018-12-18T06:04:04.663Z,5.10
2018-12-18T06:06:32.901Z,5.10
2018-12-18T06:09:01.166Z,5.10
2018-12-18T06:11:29.484Z,5.10
2018-12-18T06:13:57.909Z,5.10
2018-12-18T06:16:26.266Z,5.10
2018-12-18T06:18:54.604Z,5.20
2018-12-18T06:21:22.905Z,5.20
2018-12-18T06:23:51.219Z,5.20
2018-12-18T06:26:19.659Z,5.20
2018-12-18T06:28:47.884Z,5.20
2018-12-18T06:31:16.240Z,5.20
2018-12-18T06:33:44.500Z,5.20
2018-12-18T06:36:12.858Z,5.20
2018-12-18T06:38:41.196Z,5.20
2018-12-18T06:41:09.515Z,5.20
2018-12-18T06:43:37.833Z,5.20
2018-12-18T06:46:09.239Z,5.20
2018-12-18T06:48:37.502Z,5.20
2018-12-18T06:51:05.819Z,5.20
2018-12-18T06:53:34.062Z,5.20
2018-12-18T06:56:02.347Z,5.20
2018-12-18T06:58:31.527Z,5.20
2018-12-18T07:00:59.787Z,5.20
2018-12-18T07:03:28.086Z,5.20
2018-12-18T07:05:56.484Z,5.20
2018-12-18T07:08:24.752Z,5.20
2018-12-18T07:10:53.009Z,5.20
2018-12-18T07:13:21.356Z,5.20
2018-12-18T07:15:49.654Z,5.20
2018-12-18T07:18:17.925Z,5.20
2018-12-18T07:20:46.213Z,5.10
2018-12-18T07:23:14.510Z,5.10
2018-12-18T07:25:42.767Z,5.00
2018-12-18T07:28:11.023Z,5.00
2018-12-18T07:30:39.374Z,5.00
2018-12-18T07:33:07.670Z,5.00
2018-12-18T07:35:36.221Z,5.00
2018-12-18T07:38:04.549Z,5.00
2018-12-18T07:40:32.876Z,5.00
2018-12-18T07:43:01.149Z,5.00
2018-12-18T07:45:29.451Z,5.10
2018-12-18T07:47:57.728Z,5.10
2018-12-18T07:50:25.982Z,5.10
2018-12-18T07:52:54.334Z,5.20
2018-12-18T07:55:22.570Z,5.20
2018-12-18T07:57:50.835Z,5.20
2018-12-18T08:00:19.256Z,5.30
2018-12-18T08:02:47.499Z,5.30
2018-12-18T08:05:15.909Z,5.30
2018-12-18T08:07:44.327Z,5.50
2018-12-18T08:10:12.721Z,5.60
2018-12-18T08:12:41.018Z,5.70
2018-12-18T08:15:09.381Z,5.70
2018-12-18T08:17:37.875Z,5.80
2018-12-18T08:20:06.432Z,5.80
2018-12-18T08:22:34.777Z,5.90
2018-12-18T08:25:03.116Z,5.90
2018-12-18T08:27:31.486Z,5.80
2018-12-18T08:29:59.767Z,5.90
2018-12-18T08:32:28.075Z,5.80
2018-12-18T08:34:56.721Z,5.90
2018-12-18T08:37:25.162Z,5.90
2018-12-18T08:39:53.458Z,5.90
2018-12-18T08:42:21.938Z,5.90
2018-12-18T08:44:50.265Z,6.00
2018-12-18T08:47:18.718Z,6.00
2018-12-18T08:49:46.980Z,6.00
2018-12-18T08:53:18.246Z,6.00
2018-12-18T08:55:46.500Z,5.90
2018-12-18T08:58:14.794Z,6.00
2018-12-18T09:00:43.300Z,6.00
2018-12-18T09:03:11.609Z,6.00
2018-12-18T09:05:43.199Z,6.00
2018-12-18T09:08:10.474Z,6.00
2018-12-18T09:10:39.972Z,6.00
2018-12-18T09:13:08.416Z,6.10
2018-12-18T09:15:42.082Z,6.10
2018-12-18T09:18:10.417Z,6.10
2018-12-18T09:20:39.515Z,6.10
2018-12-18T09:23:07.991Z,6.10
2018-12-18T09:25:36.255Z,6.10
2018-12-18T09:28:04.574Z,6.20
2018-12-18T09:30:33.466Z,6.20
2018-12-18T09:33:01.763Z,6.20
2018-12-18T09:35:30.059Z,6.20
2018-12-18T09:38:03.852Z,6.20
2018-12-18T09:40:36.438Z,6.30
2018-12-18T09:43:10.037Z,6.20
2018-12-18T09:45:38.323Z,6.40
2018-12-18T09:48:06.606Z,6.50
2018-12-18T09:50:35.663Z,6.60
2018-12-18T09:53:03.995Z,6.60
2018-12-18T09:55:32.311Z,6.70
2018-12-18T09:58:00.728Z,6.80
2018-12-18T10:00:29.067Z,6.90
2018-12-18T10:02:57.315Z,6.90
2018-12-18T10:05:25.630Z,6.90
2018-12-18T10:07:53.942Z,7.00
2018-12-18T10:10:22.379Z,7.00
2018-12-18T10:12:56.463Z,7.00
2018-12-18T10:15:25.560Z,7.00
2018-12-18T10:17:53.920Z,7.00
2018-12-18T10:20:22.487Z,7.00
2018-12-18T10:22:50.813Z,7.10
2018-12-18T10:25:19.174Z,7.20
2018-12-18T10:27:47.436Z,7.20
2018-12-18T10:30:15.899Z,7.30
2018-12-18T10:32:44.226Z,7.30
2018-12-18T10:35:12.605Z,7.30
2018-12-18T10:37:42.602Z,7.30
2018-12-18T10:40:11.390Z,7.40
2018-12-18T10:42:39.852Z,7.50
2018-12-18T10:45:13.856Z,7.50
2018-12-18T10:47:42.233Z,7.50
2018-12-18T10:50:10.500Z,7.50
2018-12-18T10:52:38.784Z,7.50
2018-12-18T10:55:07.554Z,7.50
2018-12-18T10:57:35.947Z,7.50
2018-12-18T11:00:08.675Z,7.50
2018-12-18T11:02:37.069Z,7.40
2018-12-18T11:05:05.893Z,7.40
2018-12-18T11:07:34.313Z,7.40
2018-12-18T11:10:02.782Z,7.30
2018-12-18T11:12:36.971Z,6.20
2018-12-18T11:15:06.365Z,7.40
2018-12-18T11:17:34.672Z,7.40
2018-12-18T11:20:03.441Z,7.40
2018-12-18T11:22:31.771Z,7.40
2018-12-18T11:25:00.084Z,7.40
2018-12-18T11:27:28.367Z,7.40
2018-12-18T11:29:56.721Z,7.40
2018-12-18T11:32:25.011Z,7.40
2018-12-18T11:34:53.358Z,7.40
2018-12-18T11:37:21.733Z,7.40
2018-12-18T11:39:50.079Z,7.50
2018-12-18T11:42:18.389Z,7.50
2018-12-18T11:44:46.708Z,7.50
2018-12-18T11:47:15.015Z,7.60
2018-12-18T11:49:43.514Z,7.60
2018-12-18T11:52:11.881Z,7.60
2018-12-18T11:54:40.202Z,7.70
2018-12-18T11:57:08.532Z,7.70
2018-12-18T11:59:36.885Z,7.70
2018-12-18T12:02:05.334Z,7.70
2018-12-18T12:04:33.563Z,7.70
2018-12-18T12:07:01.872Z,7.70
2018-12-18T12:09:30.610Z,7.70
2018-12-18T12:11:58.970Z,7.70
2018-12-18T12:14:27.238Z,7.70
2018-12-18T12:16:55.567Z,7.70
2018-12-18T12:19:23.853Z,7.60
2018-12-18T12:21:52.138Z,7.60
2018-12-18T12:24:20.493Z,7.60
2018-12-18T12:26:48.802Z,7.70
2018-12-18T12:29:17.420Z,7.70
2018-12-18T12:31:45.775Z,7.70
2018-12-18T12:34:14.078Z,7.70
2018-12-18T12:36:42.470Z,7.70
2018-12-18T12:39:10.800Z,7.70
2018-12-18T12:41:39.042Z,7.60
2018-12-18T12:44:07.295Z,7.60
2018-12-18T12:46:35.572Z,7.60
2018-12-18T12:49:10.988Z,7.70
2018-12-18T12:51:39.463Z,7.70
2018-12-18T12:54:07.782Z,7.70
2018-12-18T12:56:36.176Z,7.70
2018-12-18T12:59:04.670Z,7.70
2018-12-18T13:01:33.863Z,7.70
2018-12-18T13:04:02.237Z,7.70
2018-12-18T13:06:36.206Z,7.70
2018-12-18T13:09:00.983Z,7.70
2018-12-18T13:11:29.913Z,7.60
2018-12-18T13:13:58.247Z,7.60
2018-12-18T13:16:26.493Z,7.60
2018-12-18T13:18:54.862Z,7.60
2018-12-18T13:21:23.202Z,7.70
2018-12-18T13:23:51.480Z,7.70
2018-12-18T13:26:19.734Z,7.70
2018-12-18T13:28:48.194Z,7.70
2018-12-18T13:31:16.505Z,7.70
2018-12-18T13:33:44.797Z,7.70
2018-12-18T13:36:13.021Z,7.70
2018-12-18T13:38:41.367Z,7.80
2018-12-18T13:41:09.846Z,7.80
2018-12-18T13:43:38.177Z,7.90
2018-12-18T13:46:06.545Z,7.80
2018-12-18T13:48:34.913Z,7.80
2018-12-18T13:51:03.425Z,7.90
2018-12-18T13:53:31.847Z,7.80
2018-12-18T13:56:00.202Z,7.80
2018-12-18T13:58:28.566Z,7.80
2018-12-18T14:00:56.880Z,7.70
2018-12-18T14:03:25.137Z,7.70
2018-12-18T14:05:53.494Z,7.70
2018-12-18T14:08:21.793Z,7.70
2018-12-18T14:10:50.234Z,7.70
2018-12-18T14:13:18.491Z,7.60
2018-12-18T14:15:46.757Z,7.50
2018-12-18T14:18:15.016Z,7.50
2018-12-18T14:20:43.282Z,7.40
2018-12-18T14:23:11.553Z,7.40
2018-12-18T14:25:39.824Z,7.40
2018-12-18T14:28:08.133Z,7.40
2018-12-18T14:30:36.378Z,7.30
2018-12-18T14:33:04.706Z,7.30
2018-12-18T14:35:33.035Z,7.30
2018-12-18T14:38:01.290Z,7.30
2018-12-18T14:40:29.618Z,7.30
2018-12-18T14:42:57.991Z,7.20
2018-12-18T14:45:26.351Z,7.10
2018-12-18T14:47:54.643Z,7.10
2018-12-18T14:50:23.589Z,7.10
2018-12-18T14:52:51.854Z,7.00
2018-12-18T14:55:20.133Z,7.00
2018-12-18T14:57:48.391Z,6.90
2018-12-18T15:00:16.665Z,6.90
2018-12-18T15:02:44.916Z,6.90
2018-12-18T15:05:13.173Z,6.80
2018-12-18T15:07:41.495Z,6.80
2018-12-18T15:10:09.879Z,6.80
2018-12-18T15:12:42.443Z,6.70
2018-12-18T15:15:10.700Z,6.70
2018-12-18T15:17:38.971Z,6.70
2018-12-18T15:20:09.012Z,6.70
2018-12-18T15:22:37.284Z,6.60
2018-12-18T15:25:06.125Z,6.50
2018-12-18T15:27:34.366Z,6.50
2018-12-18T15:30:02.745Z,6.40
2018-12-18T15:32:31.171Z,6.40
2018-12-18T15:34:59.447Z,6.30
2018-12-18T15:37:27.660Z,6.30
2018-12-18T15:39:55.972Z,6.30
2018-12-18T15:42:24.219Z,6.30
2018-12-18T15:44:52.468Z,6.20
2018-12-18T15:47:20.704Z,6.10
2018-12-18T15:49:48.929Z,6.10
2018-12-18T15:53:47.432Z,6.10
2018-12-18T15:56:15.748Z,6.10
2018-12-18T15:58:44.024Z,6.00
2018-12-18T16:01:12.387Z,6.10
2018-12-18T16:03:40.678Z,6.10
2018-12-18T16:06:08.955Z,6.00
2018-12-18T16:08:37.253Z,6.00
2018-12-18T16:11:05.507Z,6.00
2018-12-18T16:13:33.768Z,6.00
2018-12-18T16:16:02.613Z,6.10
2018-12-18T16:18:30.938Z,6.00
2018-12-18T16:20:59.212Z,6.00
2018-12-18T16:23:27.451Z,6.00
2018-12-18T16:25:55.747Z,5.90
2018-12-18T16:28:24.142Z,5.90
2018-12-18T16:30:52.493Z,5.90
2018-12-18T16:33:20.864Z,5.90
2018-12-18T16:35:49.131Z,5.80
2018-12-18T16:38:17.428Z,5.80
2018-12-18T16:40:45.691Z,5.70
2018-12-18T16:43:13.999Z,5.70
2018-12-18T16:45:42.215Z,5.70
2018-12-18T16:48:10.495Z,5.60
2018-12-18T16:50:38.822Z,5.60
2018-12-18T16:53:07.117Z,5.60
2018-12-18T16:55:35.422Z,5.50
2018-12-18T16:58:03.855Z,5.60
2018-12-18T17:00:32.091Z,5.60
2018-12-18T17:03:00.382Z,5.50
2018-12-18T17:05:28.643Z,5.50
2018-12-18T17:07:56.952Z,5.50
2018-12-18T17:10:25.816Z,5.50
2018-12-18T17:12:57.038Z,5.50
2018-12-18T17:15:25.675Z,5.40
2018-12-18T17:17:53.915Z,5.40
2018-12-18T17:20:22.136Z,5.40
2018-12-18T17:22:50.379Z,5.30
2018-12-18T17:25:18.641Z,5.30
2018-12-18T17:27:46.926Z,5.30
2018-12-18T17:30:15.173Z,5.30
2018-12-18T17:32:43.441Z,5.20
2018-12-18T17:35:11.873Z,5.20
2018-12-18T17:37:40.110Z,5.20
2018-12-18T17:40:09.091Z,5.10
2018-12-18T17:42:37.332Z,5.10
2018-12-18T17:45:07.077Z,5.00
2018-12-18T17:47:35.694Z,5.10
2018-12-18T17:50:04.743Z,5.10
2018-12-18T17:52:33.192Z,5.10
2018-12-18T17:55:01.479Z,5.00
2018-12-18T17:57:29.754Z,5.00
2018-12-18T17:59:58.058Z,5.00
2018-12-18T18:02:26.304Z,5.00
2018-12-18T18:04:54.583Z,4.90
2018-12-18T18:07:22.822Z,5.00
2018-12-18T18:09:51.079Z,4.90
2018-12-18T18:12:19.298Z,4.90
2018-12-18T18:14:47.590Z,4.90
2018-12-18T18:17:15.835Z,4.90
2018-12-18T18:19:44.089Z,4.80
2018-12-18T18:22:12.679Z,4.80
2018-12-18T18:24:41.108Z,4.80
2018-12-18T18:27:09.413Z,4.80
2018-12-18T18:29:37.676Z,4.80
2018-12-18T18:32:06.015Z,4.80
2018-12-18T18:34:34.399Z,4.80
2018-12-18T18:37:02.638Z,4.90
2018-12-18T18:39:30.879Z,4.80
2018-12-18T18:41:59.123Z,4.90
2018-12-18T18:44:27.340Z,4.90
2018-12-18T18:46:55.634Z,4.90
2018-12-18T18:49:23.911Z,4.80
2018-12-18T18:51:52.203Z,4.80
2018-12-18T18:54:20.420Z,4.80
2018-12-18T18:56:48.702Z,4.80
2018-12-18T18:59:17.005Z,4.80
2018-12-18T19:01:45.308Z,4.80
2018-12-18T19:04:13.550Z,4.80
2018-12-18T19:06:41.838Z,4.70
2018-12-18T19:09:10.080Z,4.70
2018-12-18T19:11:38.403Z,4.60
2018-12-18T19:14:06.704Z,4.60
2018-12-18T19:16:34.962Z,4.60
2018-12-18T19:19:03.197Z,4.60
2018-12-18T19:21:31.841Z,4.50
2018-12-18T19:24:00.132Z,4.50
2018-12-18T19:26:29.690Z,4.40
2018-12-18T19:28:57.946Z,4.30
2018-12-18T19:31:26.192Z,4.30
2018-12-18T19:33:54.524Z,4.30
2018-12-18T19:36:22.975Z,4.20
2018-12-18T19:38:51.171Z,4.20
2018-12-18T19:41:19.455Z,4.30
2018-12-18T19:43:47.726Z,4.30
2018-12-18T19:46:15.995Z,4.20
2018-12-18T19:48:44.429Z,4.20
2018-12-18T19:51:12.728Z,4.20
2018-12-18T19:53:41.019Z,4.20
2018-12-18T19:56:09.291Z,4.10
2018-12-18T19:58:37.566Z,4.20
2018-12-18T20:01:05.914Z,4.10
2018-12-18T20:03:34.326Z,4.10
2018-12-18T20:06:02.545Z,4.10
2018-12-18T20:08:30.813Z,4.20
2018-12-18T20:10:59.063Z,4.20
2018-12-18T20:13:27.352Z,4.20
2018-12-18T20:15:55.619Z,4.10
2018-12-18T20:18:23.864Z,4.20
2018-12-18T20:20:52.105Z,4.10
2018-12-18T20:23:20.443Z,4.00
2018-12-18T20:25:48.834Z,4.10
2018-12-18T20:28:17.133Z,4.00
2018-12-18T20:30:45.373Z,3.90
2018-12-18T20:33:14.297Z,3.90
2018-12-18T20:35:42.539Z,4.00
2018-12-18T20:38:16.646Z,3.90
2018-12-18T20:40:41.148Z,3.90
2018-12-18T20:43:09.415Z,3.90
2018-12-18T20:45:37.662Z,3.90
2018-12-18T20:48:05.911Z,3.90
2018-12-18T20:50:34.378Z,3.80
2018-12-18T20:53:02.831Z,3.80
2018-12-18T20:55:31.067Z,3.70
2018-12-18T20:57:59.302Z,3.70
2018-12-18T21:00:27.656Z,3.60
2018-12-18T21:02:56.418Z,3.70
2018-12-18T21:05:24.843Z,3.60
2018-12-18T21:07:53.397Z,3.60
2018-12-18T21:10:21.672Z,3.60
2018-12-18T21:12:49.994Z,3.50
2018-12-18T21:15:18.321Z,3.50
2018-12-18T21:17:46.627Z,3.50
2018-12-18T21:20:14.893Z,3.50
2018-12-18T21:22:43.265Z,3.50
2018-12-18T21:25:11.494Z,3.50
2018-12-18T21:27:39.857Z,3.40
2018-12-18T21:30:09.055Z,3.40
2018-12-18T21:32:37.385Z,3.40
2018-12-18T21:35:05.951Z,3.40
2018-12-18T21:37:34.333Z,3.40
2018-12-18T21:40:02.803Z,3.40
2018-12-18T21:42:31.218Z,3.30
2018-12-18T21:45:00.093Z,3.30
2018-12-18T21:47:28.432Z,3.30
2018-12-18T21:49:56.769Z,3.40
2018-12-18T21:52:25.063Z,3.40
2018-12-18T21:54:53.300Z,3.40
2018-12-18T21:57:21.506Z,3.30
2018-12-18T21:59:49.770Z,3.30
2018-12-18T22:02:18.062Z,3.30
2018-12-18T22:04:46.296Z,3.30
2018-12-18T22:07:14.574Z,3.30
2018-12-18T22:09:42.811Z,3.30
2018-12-18T22:12:11.138Z,3.30
2018-12-18T22:14:39.410Z,3.30
2018-12-18T22:17:07.631Z,3.30
2018-12-18T22:19:35.853Z,3.20
2018-12-18T22:22:04.309Z,3.20
2018-12-18T22:24:32.602Z,3.30
2018-12-18T22:27:00.978Z,3.20
2018-12-18T22:29:29.375Z,3.20
2018-12-18T22:31:57.675Z,3.20
2018-12-18T22:34:25.903Z,3.30
2018-12-18T22:36:54.203Z,3.30
2018-12-18T22:39:22.511Z,3.30
2018-12-18T22:41:50.843Z,3.30
2018-12-18T22:44:19.077Z,3.30
2018-12-18T22:46:47.361Z,3.30
2018-12-18T22:49:15.740Z,3.20
2018-12-18T22:51:44.053Z,3.30
2018-12-18T22:54:12.303Z,3.30
2018-12-18T22:56:40.610Z,3.30
2018-12-18T22:59:08.900Z,3.20
2018-12-18T23:01:41.437Z,3.30
2018-12-18T23:04:09.702Z,3.30
2018-12-18T23:06:38.049Z,3.20
2018-12-18T23:09:09.590Z,3.20
2018-12-18T23:11:37.950Z,3.20
2018-12-18T23:14:06.293Z,3.30
2018-12-18T23:16:34.542Z,3.30
2018-12-18T23:19:02.936Z,3.20
2018-12-18T23:21:32.151Z,3.20
2018-12-18T23:24:00.446Z,3.20
2018-12-18T23:26:28.907Z,3.20
2018-12-18T23:28:57.235Z,3.30
2018-12-18T23:31:25.526Z,3.20
2018-12-18T23:33:53.786Z,3.20
2018-12-18T23:36:22.004Z,3.30
2018-12-18T23:38:56.626Z,3.30
2018-12-18T23:41:20.535Z,3.30
2018-12-18T23:43:48.760Z,3.30
2018-12-18T23:46:17.018Z,3.30
2018-12-18T23:48:45.263Z,3.30
2018-12-18T23:51:13.535Z,3.30
2018-12-18T23:53:41.832Z,3.30
2018-12-18T23:56:10.143Z,3.30
2018-12-18T23:58:38.505Z,3.30
